Time;durP1;ratioP1;P1;durP2;ratioP2;P2;SDS_P1;SDS_P2;PMS_P1;PMS_P2;Temp;Humidity;BMP_temperature;BMP_pressure;BME280_temperature;BME280_humidity;BME280_pressure;Samples;Min_cycle;Max_cycle;Signal;HPM_P1;HPM_P2
2022/07/11 00:00:10;;;;;;;4.95;2.38;;;15.30;99.90;;;;;;6292460;28;20536;-77
2022/07/11 00:03:13;;;;;;;5.28;2.10;;;15.40;99.90;;;;;;6309411;28;20056;-77
2022/07/11 00:06:15;;;;;;;6.28;2.53;;;15.40;99.90;;;;;;6276015;28;20049;-77
2022/07/11 00:09:17;;;;;;;5.10;2.08;;;15.50;99.90;;;;;;6270213;28;20048;-77
2022/07/11 00:12:20;;;;;;;4.60;1.85;;;15.60;99.90;;;;;;6283847;28;20048;-77
2022/07/11 00:15:22;;;;;;;5.22;2.42;;;15.50;99.90;;;;;;6303385;28;20128;-77
2022/07/11 00:18:25;;;;;;;4.03;2.83;;;15.50;99.90;;;;;;6270870;28;20049;-77
2022/07/11 00:21:27;;;;;;;4.50;2.80;;;15.60;99.90;;;;;;6267545;28;20045;-77
2022/07/11 00:24:29;;;;;;;3.35;2.10;;;15.50;99.90;;;;;;6275350;28;20048;-77
2022/07/11 00:27:31;;;;;;;5.70;2.50;;;15.60;99.90;;;;;;6275377;28;20421;-77
2022/07/11 00:30:33;;;;;;;5.15;2.45;;;15.60;99.90;;;;;;6272808;28;20102;-77
2022/07/11 00:33:37;;;;;;;2.47;1.50;;;15.60;99.90;;;;;;6275410;28;20486;-77
2022/07/11 00:36:39;;;;;;;5.00;1.67;;;15.70;99.90;;;;;;6269286;28;20489;-76
2022/07/11 00:39:41;;;;;;;2.30;1.52;;;15.80;99.90;;;;;;6268762;28;20045;-78
2022/07/11 00:42:43;;;;;;;2.80;1.50;;;15.80;99.90;;;;;;6273123;28;20053;-77
2022/07/11 00:45:45;;;;;;;3.95;1.60;;;15.90;99.90;;;;;;6273994;28;20494;-77
2022/07/11 00:48:48;;;;;;;2.45;1.40;;;15.90;99.90;;;;;;6296039;28;20052;-77
2022/07/11 00:51:50;;;;;;;2.67;1.55;;;15.90;99.90;;;;;;6278110;28;20524;-77
2022/07/11 00:54:52;;;;;;;4.18;1.58;;;15.90;99.90;;;;;;6272453;28;20052;-77
2022/07/11 00:57:54;;;;;;;3.40;1.58;;;15.90;99.90;;;;;;6274875;28;20091;-77
2022/07/11 01:00:58;;;;;;;3.50;1.80;;;15.90;99.90;;;;;;6272803;28;20053;-78
2022/07/11 01:04:03;;;;;;;4.70;1.85;;;15.90;99.90;;;;;;6273565;28;20414;-78
2022/07/11 01:07:05;;;;;;;2.60;1.50;;;15.80;99.90;;;;;;6274923;28;20049;-77
2022/07/11 01:10:08;;;;;;;2.63;1.58;;;15.80;99.90;;;;;;6271052;28;20044;-78
2022/07/11 01:13:10;;;;;;;2.00;1.40;;;15.80;99.90;;;;;;6265206;28;20053;-78
2022/07/11 01:16:13;;;;;;;2.35;1.70;;;15.70;99.90;;;;;;6252284;28;20410;-78
2022/07/11 01:19:17;;;;;;;4.07;1.80;;;15.70;99.90;;;;;;6272733;28;20482;-77
2022/07/11 01:22:24;;;;;;;3.20;1.73;;;15.70;99.90;;;;;;6273052;28;20049;-77
2022/07/11 01:25:34;;;;;;;2.72;1.88;;;15.70;99.90;;;;;;6262331;28;20053;-78
2022/07/11 01:28:36;;;;;;;4.00;1.80;;;15.70;99.90;;;;;;6253753;28;20053;-77
2022/07/11 01:31:40;;;;;;;4.07;2.03;;;15.70;99.90;;;;;;6282657;28;20045;-77
2022/07/11 01:34:42;;;;;;;5.28;2.10;;;15.70;99.90;;;;;;6273515;28;20045;-77
2022/07/11 01:37:44;;;;;;;5.60;1.98;;;15.60;99.90;;;;;;6273656;28;20049;-77
2022/07/11 01:40:47;;;;;;;6.80;2.72;;;15.60;99.90;;;;;;6271500;28;20060;-77
2022/07/11 01:43:49;;;;;;;4.80;2.88;;;15.50;99.90;;;;;;6306037;28;20064;-77
2022/07/11 01:46:51;;;;;;;7.13;3.63;;;15.50;99.90;;;;;;6263569;28;20041;-77
2022/07/11 01:49:53;;;;;;;5.95;3.33;;;15.40;99.90;;;;;;6290414;28;20486;-77
2022/07/11 01:52:55;;;;;;;7.15;3.28;;;15.30;99.90;;;;;;6271996;28;20510;-77
2022/07/11 01:55:58;;;;;;;4.13;2.85;;;15.30;99.90;;;;;;6249075;28;20387;-77
2022/07/11 01:59:00;;;;;;;3.75;2.10;;;15.40;99.90;;;;;;6248493;28;20417;-77
2022/07/11 02:02:02;;;;;;;4.55;2.17;;;15.40;99.90;;;;;;6262447;28;20486;-77
2022/07/11 02:05:05;;;;;;;4.63;2.47;;;15.60;99.90;;;;;;6248139;28;20498;-77
2022/07/11 02:08:14;;;;;;;5.93;2.40;;;15.60;99.90;;;;;;6249006;28;20046;-77
2022/07/11 02:11:17;;;;;;;5.32;2.80;;;15.60;99.90;;;;;;6271085;28;20406;-77
2022/07/11 02:14:19;;;;;;;4.63;2.45;;;15.50;99.90;;;;;;6271770;28;20055;-77
2022/07/11 02:17:21;;;;;;;5.95;3.30;;;15.40;99.90;;;;;;6271743;28;20048;-77
2022/07/11 02:20:24;;;;;;;5.22;2.88;;;15.30;99.90;;;;;;6269770;28;20045;-76
2022/07/11 02:23:26;;;;;;;4.13;2.88;;;15.40;99.90;;;;;;6270350;28;20108;-77
2022/07/11 02:26:29;;;;;;;6.00;2.70;;;15.30;99.90;;;;;;6287905;28;20053;-78
2022/07/11 02:29:31;;;;;;;5.07;2.40;;;15.40;99.90;;;;;;6271371;28;20068;-76
2022/07/11 02:32:33;;;;;;;6.72;3.38;;;15.40;99.90;;;;;;6272239;28;20209;-77
2022/07/11 02:35:37;;;;;;;6.20;3.35;;;15.40;99.90;;;;;;6271386;28;20414;-77
2022/07/11 02:38:39;;;;;;;8.68;4.22;;;15.30;99.90;;;;;;6272249;28;20049;-77
2022/07/11 02:41:42;;;;;;;7.28;4.05;;;15.40;99.90;;;;;;6271193;28;20053;-77
2022/07/11 02:44:44;;;;;;;7.40;4.10;;;15.40;99.90;;;;;;6271508;28;20473;-77
2022/07/11 02:47:46;;;;;;;7.70;4.05;;;15.50;99.90;;;;;;6284725;28;20474;-77
2022/07/11 02:50:48;;;;;;;8.80;4.85;;;15.50;99.90;;;;;;6280924;28;20076;-76
2022/07/11 02:53:50;;;;;;;6.03;3.03;;;15.40;99.90;;;;;;6262308;28;20061;-77
2022/07/11 02:56:53;;;;;;;7.93;4.22;;;15.30;99.90;;;;;;6259024;28;20045;-77
2022/07/11 02:59:55;;;;;;;7.22;4.25;;;15.30;99.90;;;;;;6252354;28;20048;-77
2022/07/11 03:02:57;;;;;;;4.93;3.42;;;15.40;99.90;;;;;;6287436;28;20425;-77
2022/07/11 03:05:59;;;;;;;7.50;4.70;;;15.40;99.90;;;;;;6269872;28;20060;-78
2022/07/11 03:09:01;;;;;;;9.18;4.72;;;15.50;99.90;;;;;;6271263;28;20416;-77
2022/07/11 03:12:05;;;;;;;4.93;2.58;;;15.50;99.90;;;;;;6269841;28;20069;-77
2022/07/11 03:15:08;;;;;;;7.35;4.57;;;15.50;99.90;;;;;;6271958;28;20487;-77
2022/07/11 03:18:10;;;;;;;6.03;4.22;;;15.50;99.90;;;;;;6271257;28;20063;-77
2022/07/11 03:21:12;;;;;;;6.95;4.63;;;15.40;99.90;;;;;;6270197;28;20473;-77
2022/07/11 03:24:14;;;;;;;5.65;3.78;;;15.40;99.90;;;;;;6271665;28;20072;-77
2022/07/11 03:27:17;;;;;;;6.40;3.90;;;15.40;99.90;;;;;;6270835;28;20056;-77
2022/07/11 03:30:19;;;;;;;6.35;3.50;;;15.40;99.90;;;;;;6269049;28;20064;-78
2022/07/11 03:33:21;;;;;;;3.92;2.72;;;15.30;99.90;;;;;;6271522;28;20045;-77
2022/07/11 03:36:23;;;;;;;6.18;3.47;;;15.30;99.90;;;;;;6267733;28;20045;-78
2022/07/11 03:39:25;;;;;;;3.95;2.92;;;15.30;99.90;;;;;;6270138;28;20053;-77
2022/07/11 03:42:28;;;;;;;6.75;3.10;;;15.30;99.90;;;;;;6270519;28;20044;-77
2022/07/11 03:45:30;;;;;;;3.78;2.67;;;15.30;99.90;;;;;;6251477;28;20505;-78
2022/07/11 03:48:32;;;;;;;5.50;2.70;;;15.30;99.90;;;;;;6286503;28;20044;-77
2022/07/11 03:51:34;;;;;;;4.45;2.72;;;15.30;99.90;;;;;;6276424;28;20053;-77
2022/07/11 03:54:36;;;;;;;5.53;2.97;;;15.30;99.90;;;;;;6269931;28;20045;-78
2022/07/11 03:57:39;;;;;;;3.53;2.15;;;15.40;99.90;;;;;;6273643;28;20052;-78
2022/07/11 04:00:41;;;;;;;3.97;2.10;;;15.40;99.90;;;;;;6269292;28;20500;-77
2022/07/11 04:03:43;;;;;;;3.10;1.85;;;15.30;99.90;;;;;;6251512;28;20501;-78
2022/07/11 04:06:45;;;;;;;3.25;1.90;;;15.40;99.90;;;;;;6277006;28;20508;-78
2022/07/11 04:09:47;;;;;;;4.72;2.00;;;15.40;99.90;;;;;;6275010;28;20429;-78
2022/07/11 04:12:50;;;;;;;3.92;1.80;;;15.30;99.90;;;;;;6276143;28;20045;-76
2022/07/11 04:15:52;;;;;;;;;;;15.30;99.90;;;;;;6274697;28;20045;-78
2022/07/11 04:18:54;;;;;;;4.35;2.15;;;15.30;99.90;;;;;;6256397;28;19928;-78
2022/07/11 04:21:56;;;;;;;3.20;1.80;;;15.40;99.90;;;;;;6263650;28;20052;-78
2022/07/11 04:24:58;;;;;;;6.10;2.25;;;15.30;99.90;;;;;;6275881;28;20056;-78
2022/07/11 04:28:02;;;;;;;6.47;2.22;;;15.40;99.90;;;;;;6272853;28;20085;-78
2022/07/11 04:31:04;;;;;;;6.07;2.50;;;15.30;99.90;;;;;;6275177;28;20058;-77
2022/07/11 04:34:05;;;;;;;3.85;2.15;;;15.30;99.90;;;;;;6272876;28;20044;-78
2022/07/11 04:37:07;;;;;;;5.53;3.20;;;15.30;99.90;;;;;;6251976;28;20048;-77
2022/07/11 04:40:10;;;;;;;3.75;2.63;;;15.40;99.90;;;;;;6274025;28;20053;-77
2022/07/11 04:43:13;;;;;;;3.95;2.60;;;15.40;99.90;;;;;;6275151;28;20048;-78
2022/07/11 04:46:15;;;;;;;4.05;2.30;;;15.40;99.90;;;;;;6274800;28;20052;-77
2022/07/11 04:49:18;;;;;;;3.50;2.42;;;15.40;99.90;;;;;;6276540;28;20063;-78
2022/07/11 04:52:20;;;;;;;10.68;2.80;;;15.40;99.90;;;;;;6267250;28;20065;-77
2022/07/11 04:55:22;;;;;;;2.33;1.45;;;15.50;99.90;;;;;;6273752;28;20410;-77
2022/07/11 04:58:25;;;;;;;4.78;2.47;;;15.50;99.90;;;;;;6304350;28;20056;-77
2022/07/11 05:01:28;;;;;;;3.92;1.40;;;15.50;99.90;;;;;;6273896;28;20482;-78
2022/07/11 05:04:30;;;;;;;2.92;1.02;;;15.50;99.90;;;;;;6286302;28;20053;-78
2022/07/11 05:07:32;;;;;;;159.77;7.00;;;15.50;99.90;;;;;;6284906;28;20406;-77
2022/07/11 05:10:36;;;;;;;4.15;1.48;;;15.50;99.90;;;;;;6253730;28;20487;-78
2022/07/11 05:13:39;;;;;;;2.28;1.00;;;15.40;99.90;;;;;;6249863;28;20053;-78
2022/07/11 05:16:41;;;;;;;3.33;1.00;;;15.50;99.90;;;;;;6270032;28;20045;-77
2022/07/11 05:19:43;;;;;;;2.90;1.23;;;15.50;99.90;;;;;;6270071;28;20053;-77
2022/07/11 05:22:45;;;;;;;4.22;1.25;;;15.50;99.90;;;;;;6273010;28;20057;-77
2022/07/11 05:25:46;;;;;;;2.75;1.10;;;15.50;99.90;;;;;;6273467;28;20053;-77
2022/07/11 05:28:50;;;;;;;4.80;1.10;;;15.60;99.90;;;;;;6304930;28;20053;-77
2022/07/11 05:31:52;;;;;;;4.10;1.15;;;15.60;99.90;;;;;;6272503;28;20053;-78
2022/07/11 05:34:56;;;;;;;4.78;1.17;;;15.70;99.90;;;;;;6274390;28;20048;-77
2022/07/11 05:37:58;;;;;;;2.70;1.00;;;15.70;99.90;;;;;;6271219;28;20183;-78
2022/07/11 05:41:00;;;;;;;2.83;0.88;;;15.60;99.90;;;;;;6270820;28;20045;-77
2022/07/11 05:44:04;;;;;;;4.63;0.90;;;15.60;99.90;;;;;;6258751;28;20045;-78
2022/07/11 05:47:06;;;;;;;6.93;1.10;;;15.70;99.90;;;;;;6273235;28;20056;-78
2022/07/11 05:50:09;;;;;;;2.90;0.90;;;15.80;99.90;;;;;;6277561;28;20051;-78
2022/07/11 05:53:12;;;;;;;1.40;0.50;;;15.80;99.90;;;;;;6295797;28;20060;-77
2022/07/11 05:56:14;;;;;;;1.40;0.50;;;15.80;99.90;;;;;;6248626;28;21004;-78
2022/07/11 05:59:17;;;;;;;3.17;0.57;;;15.90;99.90;;;;;;6279834;28;20490;-77
2022/07/11 06:02:19;;;;;;;1.90;0.80;;;16.00;99.90;;;;;;6280651;28;20056;-78
2022/07/11 06:05:22;;;;;;;2.30;0.75;;;16.10;99.90;;;;;;6272206;28;20057;-78
2022/07/11 06:08:41;;;;;;;1.65;0.82;;;16.20;99.90;;;;;;6271315;28;20045;-84
2022/07/11 06:11:43;;;;;;;1.92;0.63;;;16.20;99.90;;;;;;6273246;28;20118;-79
2022/07/11 06:14:47;;;;;;;1.38;0.65;;;16.20;99.90;;;;;;6270950;28;20057;-77
2022/07/11 06:17:48;;;;;;;2.20;0.63;;;16.10;99.90;;;;;;6275151;28;20482;-78
2022/07/11 06:20:51;;;;;;;2.88;0.68;;;16.00;99.90;;;;;;6259550;28;20419;-78
2022/07/11 06:23:53;;;;;;;2.25;0.80;;;16.00;99.90;;;;;;6269434;28;20057;-78
2022/07/11 06:26:58;;;;;;;2.75;0.70;;;15.90;99.90;;;;;;6270745;28;20061;-77
2022/07/11 06:30:02;;;;;;;2.55;0.95;;;16.00;99.90;;;;;;6271859;28;20049;-77
2022/07/11 06:33:04;;;;;;;1.33;0.60;;;16.00;99.90;;;;;;6272154;28;20049;-76
2022/07/11 06:36:07;;;;;;;2.50;0.73;;;16.10;99.90;;;;;;6247860;28;20183;-77
2022/07/11 06:39:09;;;;;;;1.70;0.50;;;16.10;99.90;;;;;;6260815;28;20060;-77
2022/07/11 06:42:11;;;;;;;1.70;0.50;;;16.30;99.90;;;;;;6271950;28;20802;-77
2022/07/11 06:45:14;;;;;;;4.32;0.50;;;16.20;99.90;;;;;;6304400;28;20055;-77
2022/07/11 06:48:16;;;;;;;2.13;0.60;;;16.20;99.90;;;;;;6288116;28;20049;-77
2022/07/11 06:51:18;;;;;;;2.90;0.40;;;16.20;99.90;;;;;;6254563;28;20733;-77
2022/07/11 06:54:20;;;;;;;2.20;0.55;;;16.40;99.90;;;;;;6256504;28;20048;-76
2022/07/11 06:57:22;;;;;;;2.15;0.50;;;16.40;99.90;;;;;;6271788;28;20059;-76
2022/07/11 07:00:27;;;;;;;2.08;0.45;;;16.50;99.90;;;;;;6271609;28;20494;-77
2022/07/11 07:03:30;;;;;;;1.48;0.30;;;16.60;99.90;;;;;;6272064;28;20057;-76
2022/07/11 07:06:32;;;;;;;0.73;0.20;;;16.60;99.90;;;;;;6272046;28;20052;-76
2022/07/11 07:09:34;;;;;;;1.63;0.35;;;16.70;99.90;;;;;;6249723;28;20095;-76
2022/07/11 07:12:39;;;;;;;2.45;0.45;;;16.90;99.90;;;;;;6262758;28;20415;-76
2022/07/11 07:15:42;;;;;;;1.65;0.63;;;17.10;99.90;;;;;;6265720;28;20520;-77
2022/07/11 07:18:45;;;;;;;0.93;0.25;;;17.20;99.90;;;;;;6303989;28;20049;-77
2022/07/11 07:21:47;;;;;;;1.10;0.28;;;17.20;99.90;;;;;;6270570;28;20150;-77
2022/07/11 07:24:49;;;;;;;0.68;0.20;;;17.10;99.90;;;;;;6286210;28;20056;-76
2022/07/11 07:27:51;;;;;;;0.93;0.20;;;17.00;99.90;;;;;;6286574;28;20049;-76
2022/07/11 07:30:54;;;;;;;0.38;0.10;;;16.90;99.90;;;;;;6270300;28;20044;-77
2022/07/11 07:33:56;;;;;;;2.78;0.22;;;16.90;99.90;;;;;;6271026;28;20429;-77
2022/07/11 07:36:58;;;;;;;2.22;0.65;;;16.90;99.90;;;;;;6296133;28;20064;-77
2022/07/11 07:40:00;;;;;;;4.85;1.30;;;17.00;99.90;;;;;;6261289;28;20041;-77
2022/07/11 07:43:02;;;;;;;4.53;1.15;;;16.90;99.90;;;;;;6270450;28;20045;-76
2022/07/11 07:46:08;;;;;;;4.03;0.90;;;16.90;99.90;;;;;;6271198;28;20174;-77
2022/07/11 07:49:10;;;;;;;2.05;0.93;;;16.90;99.90;;;;;;6270664;28;20476;-77
2022/07/11 07:52:12;;;;;;;1.98;0.77;;;17.00;99.90;;;;;;6286863;28;20468;-77
2022/07/11 07:55:14;;;;;;;4.10;1.08;;;17.10;99.90;;;;;;6271021;28;20105;-78
2022/07/11 07:58:16;;;;;;;1.75;0.57;;;17.20;99.90;;;;;;6284553;28;20052;-77
2022/07/11 08:01:35;;;;;;;0.50;0.20;;;17.20;99.90;;;;;;6258231;28;20048;-77
2022/07/11 08:04:37;;;;;;;0.20;0.13;;;17.30;99.90;;;;;;6303210;28;20049;-77
2022/07/11 08:07:39;;;;;;;0.93;0.28;;;17.20;99.90;;;;;;6303318;28;20045;-77
2022/07/11 08:10:41;;;;;;;0.80;0.20;;;17.20;99.90;;;;;;6303402;28;20081;-77
2022/07/11 08:13:43;;;;;;;2.03;0.22;;;17.30;99.90;;;;;;6269944;28;20053;-78
2022/07/11 08:16:47;;;;;;;1.38;0.25;;;17.20;99.90;;;;;;6269197;28;20053;-77
2022/07/11 08:19:49;;;;;;;0.98;0.50;;;17.30;99.90;;;;;;6268935;28;20049;-77
2022/07/11 08:22:51;;;;;;;1.25;0.52;;;17.10;99.90;;;;;;6256928;28;20049;-77
2022/07/11 08:25:53;;;;;;;2.55;1.17;;;16.90;99.90;;;;;;6245860;28;20057;-77
2022/07/11 08:28:56;;;;;;;1.67;1.15;;;16.90;99.90;;;;;;6245802;28;20422;-77
2022/07/11 08:31:59;;;;;;;2.83;2.00;;;16.90;99.90;;;;;;6245559;28;20056;-77
2022/07/11 08:35:01;;;;;;;3.15;1.95;;;17.10;99.90;;;;;;6261048;28;20506;-77
2022/07/11 08:38:03;;;;;;;4.88;1.40;;;17.20;99.90;;;;;;6278131;28;20422;-77
2022/07/11 08:41:06;;;;;;;7.18;2.58;;;17.20;99.90;;;;;;6289390;28;20057;-77
2022/07/11 08:44:08;;;;;;;2.83;1.20;;;17.30;99.90;;;;;;6272710;28;20056;-77
2022/07/11 08:47:13;;;;;;;1.73;1.10;;;17.30;99.90;;;;;;6307028;28;20056;-77
2022/07/11 08:50:14;;;;;;;1.95;1.08;;;17.50;99.90;;;;;;6306077;28;20052;-78
2022/07/11 08:53:17;;;;;;;0.30;0.20;;;17.90;99.90;;;;;;6274738;28;20179;-77
2022/07/11 08:56:21;;;;;;;2.78;0.75;;;18.00;99.90;;;;;;6306816;28;20057;-78
2022/07/11 08:59:26;;;;;;;0.65;0.20;;;18.00;99.90;;;;;;6302565;28;20156;-77
2022/07/11 09:02:34;;;;;;;1.48;0.30;;;17.90;99.90;;;;;;6249692;28;20053;-77
2022/07/11 09:05:36;;;;;;;0.55;0.20;;;17.70;99.90;;;;;;6249865;28;20142;-77
2022/07/11 09:08:39;;;;;;;0.93;0.38;;;17.60;99.90;;;;;;6270910;28;20056;-78
2022/07/11 09:11:51;;;;;;;2.60;0.35;;;17.50;99.90;;;;;;6307093;28;20048;-77
2022/07/11 09:14:54;;;;;;;2.67;0.43;;;17.30;99.90;;;;;;6262953;28;20052;-77
2022/07/11 09:17:57;;;;;;;0.75;0.50;;;17.40;99.90;;;;;;6247968;28;20103;-77
2022/07/11 09:27:42;;;;;;;2.88;1.35;;;17.20;99.90;;;;;;6274490;28;20545;-77
2022/07/11 09:30:44;;;;;;;3.42;1.20;;;17.30;99.90;;;;;;6273648;28;20524;-77
2022/07/11 09:34:05;;;;;;;2.28;0.98;;;17.20;99.90;;;;;;6272923;28;20052;-77
2022/07/11 09:37:08;;;;;;;1.88;0.70;;;17.10;99.90;;;;;;6274059;28;20533;-77
2022/07/11 09:40:12;;;;;;;2.83;0.55;;;17.10;99.90;;;;;;6271849;28;20052;-77
2022/07/11 09:43:14;;;;;;;2.72;0.70;;;17.10;99.90;;;;;;6249208;28;20130;-76
2022/07/11 09:46:24;;;;;;;1.30;0.50;;;16.90;99.90;;;;;;6248788;28;20104;-77
2022/07/11 09:49:35;;;;;;;2.53;0.55;;;16.80;99.90;;;;;;6248739;28;20064;-76
2022/07/11 09:52:37;;;;;;;1.73;0.40;;;16.90;99.90;;;;;;6249146;28;20475;-77
2022/07/11 09:55:40;;;;;;;2.38;0.70;;;16.90;99.90;;;;;;6248466;28;20049;-77
2022/07/11 09:58:42;;;;;;;1.55;0.52;;;16.90;99.90;;;;;;6261415;28;20052;-77
2022/07/11 10:01:45;;;;;;;1.80;0.60;;;17.00;99.90;;;;;;6272854;28;20053;-77
2022/07/11 10:04:50;;;;;;;2.03;0.30;;;17.20;99.90;;;;;;6304538;28;20052;-79
2022/07/11 10:07:52;;;;;;;1.38;0.30;;;17.30;99.90;;;;;;6266325;28;20513;-85
2022/07/11 10:10:54;;;;;;;0.80;0.30;;;17.40;99.90;;;;;;6257625;28;20072;-84
2022/07/11 10:13:57;;;;;;;2.40;0.50;;;17.40;99.90;;;;;;6262384;28;20079;-83
2022/07/11 10:17:03;;;;;;;1.42;0.47;;;17.40;99.90;;;;;;6246994;28;20061;-83
2022/07/11 10:20:16;;;;;;;1.15;0.60;;;17.10;99.90;;;;;;6286523;28;20060;-85
2022/07/11 10:23:25;;;;;;;1.27;0.30;;;17.00;99.90;;;;;;6272680;28;20049;-88
2022/07/11 10:26:37;;;;;;;3.58;0.68;;;17.10;99.90;;;;;;6265925;28;20129;-87
2022/07/11 10:29:45;;;;;;;1.60;0.40;;;17.20;99.90;;;;;;6271359;28;20485;-90
2022/07/11 10:33:06;;;;;;;1.00;0.70;;;17.10;99.90;;;;;;6260634;28;20050;-86
2022/07/11 10:36:26;;;;;;;2.35;0.50;;;17.10;99.90;;;;;;6268063;28;20132;-87
2022/07/11 10:39:29;;;;;;;4.03;0.95;;;17.30;99.90;;;;;;6271702;28;20052;-91
2022/07/11 10:42:40;;;;;;;1.48;0.32;;;17.50;99.90;;;;;;6249522;28;20049;-86
2022/07/11 10:45:58;;;;;;;1.67;0.63;;;17.80;99.90;;;;;;6247535;28;20049;-88
2022/07/11 10:49:08;;;;;;;3.10;1.30;;;18.00;99.90;;;;;;6254187;28;20045;-85
2022/07/11 10:52:11;;;;;;;1.80;1.60;;;17.90;99.90;;;;;;6303094;28;20052;-81
2022/07/11 10:55:20;;;;;;;;;;;17.60;99.90;;;;;;6271672;28;20068;-82
2022/07/11 10:58:29;;;;;;;2.60;2.08;;;17.50;99.90;;;;;;6269963;28;19928;-84
2022/07/11 11:01:31;;;;;;;2.00;1.40;;;17.60;99.90;;;;;;6269963;28;20053;-81
2022/07/11 11:04:47;;;;;;;2.53;1.73;;;17.50;99.90;;;;;;6270850;28;20072;-83
2022/07/11 11:07:51;;;;;;;3.10;1.63;;;17.40;99.90;;;;;;6246814;28;20049;-85
2022/07/11 11:10:53;;;;;;;3.17;1.45;;;17.40;99.90;;;;;;6261412;28;20081;-84
2022/07/11 11:14:19;;;;;;;2.20;1.05;;;17.50;99.90;;;;;;6246710;28;20052;-84
2022/07/11 11:17:37;;;;;;;1.83;1.25;;;17.70;99.90;;;;;;6245901;28;20096;-85
2022/07/11 11:20:40;;;;;;;3.40;1.10;;;17.80;99.90;;;;;;6246631;28;20505;-85
2022/07/11 11:23:46;;;;;;;2.58;0.90;;;17.90;99.90;;;;;;6262139;28;20056;-86
2022/07/11 11:26:51;;;;;;;2.05;0.70;;;17.90;99.90;;;;;;6251002;28;20045;-83
2022/07/11 11:29:55;;;;;;;1.23;0.50;;;17.80;99.90;;;;;;6253354;28;20425;-84
2022/07/11 11:32:57;;;;;;;1.33;0.55;;;17.70;99.90;;;;;;6255515;28;20040;-83
2022/07/11 11:36:01;;;;;;;0.95;0.50;;;17.80;99.90;;;;;;6249007;28;20061;-84
2022/07/11 11:39:05;;;;;;;1.42;0.50;;;17.80;99.90;;;;;;6245824;28;20053;-83
2022/07/11 11:42:11;;;;;;;2.47;0.50;;;17.80;99.90;;;;;;6248062;28;20053;-86
2022/07/11 11:45:14;;;;;;;2.75;0.57;;;17.80;99.90;;;;;;6291057;28;20068;-82
2022/07/11 11:48:27;;;;;;;0.40;0.40;;;17.90;99.90;;;;;;6249699;28;20470;-84
2022/07/11 11:51:31;;;;;;;3.27;0.50;;;17.80;99.90;;;;;;6253709;28;20478;-83
2022/07/11 11:54:34;;;;;;;0.95;0.43;;;17.90;99.90;;;;;;6271212;28;20052;-83
2022/07/11 11:57:36;;;;;;;1.02;0.60;;;18.00;99.90;;;;;;6270237;28;20041;-81
2022/07/11 12:00:38;;;;;;;1.88;0.65;;;17.90;99.90;;;;;;6268983;28;20055;-82
2022/07/11 12:03:50;;;;;;;1.63;0.73;;;18.00;99.90;;;;;;6279369;28;20053;-83
2022/07/11 12:06:52;;;;;;;1.35;0.40;;;18.10;99.90;;;;;;6246818;28;20049;-83
2022/07/11 12:09:59;;;;;;;1.92;0.90;;;18.20;99.90;;;;;;6251745;28;20041;-83
2022/07/11 12:13:00;;;;;;;2.38;0.68;;;18.30;99.90;;;;;;6268860;28;20128;-81
2022/07/11 12:19:24;;;;;;;1.58;0.60;;;18.00;99.90;;;;;;6252714;28;20053;-82
2022/07/11 12:22:27;;;;;;;0.73;0.60;;;17.90;99.90;;;;;;6271208;28;20048;-83
2022/07/11 12:25:30;;;;;;;1.48;0.95;;;17.90;99.90;;;;;;6271221;28;20049;-84
2022/07/11 12:28:32;;;;;;;;;;;17.80;99.90;;;;;;6267764;28;20056;-84
2022/07/11 12:31:45;;;;;;;2.15;1.00;;;17.80;99.90;;;;;;6263304;28;19948;-83
2022/07/11 12:34:49;;;;;;;2.15;0.90;;;17.70;99.90;;;;;;6305844;28;20041;-83
2022/07/11 12:37:54;;;;;;;;;;;17.70;99.90;;;;;;6271682;28;20132;-84
2022/07/11 12:41:06;;;;;;;1.90;1.02;;;17.80;99.90;;;;;;6291475;28;20285;-83
2022/07/11 12:47:29;;;;;;;2.00;1.60;;;18.00;99.90;;;;;;6271419;28;20091;-83
2022/07/11 12:50:31;;;;;;;2.30;1.30;;;18.00;99.90;;;;;;6253533;28;20041;-83
2022/07/11 12:53:33;;;;;;;1.50;1.15;;;17.90;99.90;;;;;;6253211;28;20411;-82
2022/07/11 12:56:37;;;;;;;1.38;1.08;;;17.70;99.90;;;;;;6301339;28;20051;-82
2022/07/11 12:59:41;;;;;;;1.60;1.10;;;17.70;99.90;;;;;;6252184;28;20183;-83
2022/07/11 13:02:48;;;;;;;1.70;1.35;;;17.80;99.90;;;;;;6254893;28;20176;-83
2022/07/11 13:05:51;;;;;;;2.95;1.15;;;18.00;99.90;;;;;;6268535;28;20056;-83
2022/07/11 13:08:52;;;;;;;2.10;1.60;;;18.10;99.90;;;;;;6269171;28;20045;-82
2022/07/11 13:11:56;;;;;;;2.53;1.40;;;18.20;99.90;;;;;;6250088;28;20052;-82
2022/07/11 13:15:10;;;;;;;1.58;1.30;;;18.20;99.90;;;;;;6248869;28;20059;-82
2022/07/11 13:18:13;;;;;;;2.17;1.50;;;18.20;99.90;;;;;;6257991;28;20052;-82
2022/07/11 13:21:15;;;;;;;4.10;1.50;;;18.20;99.90;;;;;;6270912;28;20202;-83
2022/07/11 13:24:17;;;;;;;2.40;1.30;;;18.30;99.90;;;;;;6250689;28;20041;-83
2022/07/11 13:27:21;;;;;;;3.20;1.40;;;18.40;99.90;;;;;;6272341;28;20065;-84
2022/07/11 13:30:28;;;;;;;2.38;1.02;;;18.40;99.90;;;;;;6272106;28;20045;-84
2022/07/11 13:33:30;;;;;;;2.83;2.63;;;18.40;99.90;;;;;;6273122;28;20048;-84
2022/07/11 13:36:32;;;;;;;1.45;1.00;;;18.60;99.90;;;;;;6256402;28;20046;-81
2022/07/11 13:39:34;;;;;;;5.72;1.67;;;18.70;99.90;;;;;;6260655;28;20052;-82
2022/07/11 13:42:37;;;;;;;3.70;3.40;;;18.50;99.90;;;;;;6273665;28;20059;-84
2022/07/11 13:45:39;;;;;;;1.98;1.50;;;18.60;99.90;;;;;;6279810;28;20056;-84
2022/07/11 13:48:42;;;;;;;1.30;1.05;;;18.60;99.90;;;;;;6273243;28;20494;-83
2022/07/11 13:51:44;;;;;;;3.60;1.20;;;18.70;99.90;;;;;;6273812;28;20045;-82
2022/07/11 13:54:46;;;;;;;1.80;1.40;;;18.70;99.90;;;;;;6299514;28;20049;-83
2022/07/11 13:58:04;;;;;;;2.83;2.40;;;18.60;99.90;;;;;;6268382;28;20049;-83
2022/07/11 14:01:06;;;;;;;2.08;1.20;;;18.50;99.90;;;;;;6273404;28;20052;-83
2022/07/11 14:04:08;;;;;;;3.63;3.33;;;18.50;99.90;;;;;;6269470;28;20418;-82
2022/07/11 14:07:11;;;;;;;2.40;2.20;;;18.50;99.90;;;;;;6267084;28;20422;-83
2022/07/11 14:10:14;;;;;;;1.35;1.25;;;18.50;99.90;;;;;;6272079;28;20053;-84
2022/07/11 14:13:17;;;;;;;6.50;6.05;;;18.50;99.90;;;;;;6263209;28;20494;-82
2022/07/11 14:16:21;;;;;;;1.95;1.38;;;18.50;99.90;;;;;;6266107;28;20045;-82
2022/07/11 14:19:23;;;;;;;2.22;1.30;;;18.30;99.90;;;;;;6272898;28;20091;-82
2022/07/11 14:22:25;;;;;;;3.25;1.40;;;18.30;99.90;;;;;;6269110;28;20127;-83
2022/07/11 14:25:27;;;;;;;1.70;1.50;;;18.50;99.90;;;;;;6250183;28;20536;-83
2022/07/11 14:28:31;;;;;;;2.83;1.40;;;18.80;99.90;;;;;;6272064;28;20124;-84
2022/07/11 14:31:34;;;;;;;2.50;1.40;;;18.80;99.90;;;;;;6264195;28;20136;-83
2022/07/11 14:34:36;;;;;;;2.63;1.70;;;18.90;99.90;;;;;;6269603;28;20055;-83
2022/07/11 14:37:37;;;;;;;2.75;1.02;;;18.90;99.90;;;;;;6274415;28;20559;-84
2022/07/11 14:40:39;;;;;;;2.72;1.13;;;18.90;99.90;;;;;;6259971;28;20698;-85
2022/07/11 14:43:43;;;;;;;2.55;1.42;;;18.90;99.90;;;;;;6263048;28;20064;-90
2022/07/11 14:46:45;;;;;;;1.30;0.70;;;19.00;99.90;;;;;;6265184;28;20080;-88
2022/07/11 14:49:46;;;;;;;1.83;1.05;;;19.00;99.90;;;;;;6246794;28;20060;-84
2022/07/11 14:52:49;;;;;;;1.92;0.70;;;18.90;99.90;;;;;;6268722;28;20115;-83
2022/07/11 14:55:51;;;;;;;2.03;1.00;;;18.90;99.90;;;;;;6270343;28;20132;-79
2022/07/11 14:58:54;;;;;;;1.20;0.65;;;18.60;99.90;;;;;;6279191;28;20405;-81
2022/07/11 15:01:56;;;;;;;1.25;0.70;;;18.40;99.90;;;;;;6293871;28;20056;-80
2022/07/11 15:04:58;;;;;;;1.10;0.80;;;18.60;99.90;;;;;;6264074;28;20417;-79
2022/07/11 15:14:49;;;;;;;1.60;1.10;;;18.80;99.90;;;;;;6282677;28;20494;-89
2022/07/11 15:17:51;;;;;;;1.23;0.80;;;18.70;99.90;;;;;;6270988;28;20040;-81
2022/07/11 15:20:53;;;;;;;1.25;0.40;;;18.80;99.90;;;;;;6281805;28;20417;-82
2022/07/11 15:23:55;;;;;;;0.95;0.40;;;18.90;99.90;;;;;;6288799;28;20048;-80
2022/07/11 15:26:58;;;;;;;1.67;0.40;;;19.00;99.90;;;;;;6274820;28;20048;-84
2022/07/11 15:30:01;;;;;;;1.75;0.43;;;19.00;99.90;;;;;;6268193;28;20052;-90
2022/07/11 15:33:03;;;;;;;1.67;0.40;;;19.00;99.90;;;;;;6268916;28;20474;-84
2022/07/11 15:36:06;;;;;;;1.65;0.50;;;19.10;99.90;;;;;;6269786;28;20049;-86
2022/07/11 15:39:07;;;;;;;2.60;0.73;;;19.10;99.90;;;;;;6270341;28;20488;-86
2022/07/11 15:42:09;;;;;;;1.08;0.40;;;18.90;99.90;;;;;;6271459;28;20478;-87
2022/07/11 15:45:13;;;;;;;0.77;0.35;;;18.90;99.90;;;;;;6268928;28;20049;-85
2022/07/11 15:48:15;;;;;;;1.20;0.32;;;18.80;99.90;;;;;;6261193;28;20505;-84
2022/07/11 15:51:17;;;;;;;0.60;0.30;;;18.70;99.90;;;;;;6300086;28;20429;-87
2022/07/11 15:54:19;;;;;;;1.65;0.40;;;18.70;99.90;;;;;;6252910;28;20056;-89
2022/07/11 15:57:21;;;;;;;0.50;0.32;;;18.70;99.90;;;;;;6274598;28;20057;-90
2022/07/11 16:00:24;;;;;;;1.58;0.38;;;18.80;99.90;;;;;;6262869;28;20048;-88
2022/07/11 16:03:26;;;;;;;3.28;0.85;;;18.70;99.90;;;;;;6274837;28;20049;-90
2022/07/11 16:06:28;;;;;;;0.90;0.50;;;18.80;99.90;;;;;;6266585;28;20060;-87
2022/07/11 16:09:30;;;;;;;0.43;0.40;;;18.90;99.90;;;;;;6260691;28;20572;-85
2022/07/11 16:12:32;;;;;;;1.65;0.50;;;18.90;99.90;;;;;;6270060;28;20041;-81
2022/07/11 16:15:36;;;;;;;0.75;0.35;;;18.90;99.90;;;;;;6273843;28;20044;-83